createdAt,value
2018-09-04T00:00:26.369Z,35.27
2018-09-04T00:02:58.122Z,35.47
2018-09-04T00:08:08.188Z,32.53
2018-09-04T00:10:37.534Z,35.73
2018-09-04T00:13:06.398Z,33.63
2018-09-04T00:15:35.479Z,33.30
2018-09-04T00:18:08.159Z,34.13
2018-09-04T00:20:39.200Z,34.93
2018-09-04T00:23:08.171Z,32.60
2018-09-04T00:25:37.776Z,34.30
2018-09-04T00:28:10.275Z,33.60
2018-09-04T00:30:43.037Z,35.80
2018-09-04T00:33:11.950Z,34.37
2018-09-04T00:35:42.373Z,33.93
2018-09-04T00:38:15.375Z,35.87
2018-09-04T00:40:44.786Z,35.17
2018-09-04T00:43:13.735Z,35.63
2018-09-04T00:45:42.749Z,34.83
2018-09-04T00:48:14.507Z,36.20
2018-09-04T00:50:46.427Z,35.97
2018-09-04T00:53:15.336Z,37.43
2018-09-04T00:55:44.282Z,38.73
2018-09-04T00:58:19.373Z,36.43
2018-09-04T01:00:49.292Z,36.30
2018-09-04T01:03:18.173Z,35.87
2018-09-04T01:05:48.008Z,36.90
2018-09-04T01:08:24.816Z,35.50
2018-09-04T01:10:53.773Z,36.20
2018-09-04T01:16:11.158Z,35.93
2018-09-04T01:18:40.147Z,38.30
2018-09-04T01:21:09.919Z,36.90
2018-09-04T01:23:43.927Z,36.30
2018-09-04T01:26:13.841Z,38.03
2018-09-04T01:28:42.810Z,39.27
2018-09-04T01:31:12.753Z,39.07
2018-09-04T01:33:46.351Z,38.53
2018-09-04T01:36:15.702Z,40.43
2018-09-04T01:38:44.656Z,39.73
2018-09-04T01:41:13.640Z,38.03
2018-09-04T01:43:44.171Z,39.43
2018-09-04T01:46:17.036Z,39.83
2018-09-04T01:48:46.126Z,41.83
2018-09-04T01:51:15.025Z,41.07
2018-09-04T01:56:23.676Z,40.17
2018-09-04T01:58:59.543Z,42.73
2018-09-04T02:01:28.439Z,42.07
2018-09-04T02:03:57.429Z,39.97
2018-09-04T02:06:34.440Z,41.83
2018-09-04T02:09:04.287Z,40.87
2018-09-04T02:11:35.044Z,41.93
2018-09-04T02:14:07.467Z,41.60
2018-09-04T02:16:36.893Z,41.00
2018-09-04T02:19:06.356Z,43.03
2018-09-04T02:21:36.543Z,41.97
2018-09-04T02:24:09.103Z,42.43
2018-09-04T02:26:38.757Z,41.23
2018-09-04T02:29:07.631Z,41.70
2018-09-04T02:31:36.715Z,41.63
2018-09-04T02:34:06.735Z,42.20
2018-09-04T02:36:37.870Z,40.57
2018-09-04T02:39:09.536Z,41.83
2018-09-04T02:41:38.515Z,39.13
2018-09-04T02:44:09.025Z,39.73
2018-09-04T02:46:40.299Z,40.27
2018-09-04T02:49:10.174Z,41.43
2018-09-04T02:51:39.060Z,42.17
2018-09-04T02:54:08.067Z,40.60
2018-09-04T02:56:37.039Z,41.43
2018-09-04T02:59:06.031Z,42.23
2018-09-04T03:01:35.109Z,40.63
2018-09-04T03:04:04.067Z,41.43
2018-09-04T03:06:33.004Z,41.97
2018-09-04T03:09:01.977Z,43.30
2018-09-04T03:11:30.925Z,42.17
2018-09-04T03:13:59.954Z,44.60
2018-09-04T03:16:28.848Z,42.03
2018-09-04T03:18:57.798Z,40.47
2018-09-04T03:21:26.821Z,40.37
2018-09-04T03:23:55.651Z,42.73
2018-09-04T03:26:24.649Z,42.13
2018-09-04T03:28:53.595Z,43.17
2018-09-04T03:31:22.533Z,43.27
2018-09-04T03:33:51.737Z,41.10
2018-09-04T03:36:20.627Z,42.20
2018-09-04T03:38:49.540Z,39.73
2018-09-04T03:41:18.510Z,39.70
2018-09-04T03:43:47.469Z,38.67
2018-09-04T03:46:16.413Z,42.80
2018-09-04T03:48:45.367Z,42.07
2018-09-04T03:51:14.348Z,43.37
2018-09-04T03:53:43.310Z,42.67
2018-09-04T03:56:12.300Z,42.57
2018-09-04T03:58:41.262Z,43.67
2018-09-04T04:01:10.152Z,43.93
2018-09-04T04:03:39.707Z,43.83
2018-09-04T04:06:08.639Z,44.57
2018-09-04T04:08:37.553Z,46.10
2018-09-04T04:11:06.483Z,46.93
2018-09-04T04:13:35.424Z,47.40
2018-09-04T04:16:05.397Z,48.90
2018-09-04T04:18:34.349Z,46.80
2018-09-04T04:21:03.551Z,48.50
2018-09-04T04:23:32.505Z,49.50
2018-09-04T04:26:03.001Z,48.43
2018-09-04T04:28:32.683Z,49.50
2018-09-04T04:31:01.631Z,49.20
2018-09-04T04:33:30.609Z,49.93
2018-09-04T04:35:59.538Z,51.30
2018-09-04T04:38:28.494Z,49.50
2018-09-04T04:40:57.550Z,49.40
2018-09-04T04:43:26.523Z,50.53
2018-09-04T04:45:55.460Z,48.70
2018-09-04T04:48:24.488Z,49.13
2018-09-04T04:50:53.396Z,49.33
2018-09-04T04:53:22.331Z,49.67
2018-09-04T04:55:58.863Z,49.70
2018-09-04T04:58:27.825Z,49.13
2018-09-04T05:00:56.876Z,47.80
2018-09-04T05:03:25.768Z,49.00
2018-09-04T05:05:54.667Z,49.27
2018-09-04T05:08:23.623Z,50.33
2018-09-04T05:10:52.624Z,50.20
2018-09-04T05:13:21.487Z,50.67
2018-09-04T05:15:50.413Z,49.00
2018-09-04T05:18:19.415Z,48.47
2018-09-04T05:20:48.442Z,50.70
2018-09-04T05:23:17.433Z,53.60
2018-09-04T05:25:46.433Z,52.83
2018-09-04T05:28:16.451Z,50.30
2018-09-04T05:30:45.460Z,52.23
2018-09-04T05:33:16.493Z,49.77
2018-09-04T05:35:49.899Z,51.30
2018-09-04T05:38:18.843Z,50.33
2018-09-04T05:40:47.826Z,49.90
2018-09-04T05:43:20.759Z,51.67
2018-09-04T05:45:49.681Z,51.00
2018-09-04T05:48:18.635Z,50.30
2018-09-04T05:50:47.696Z,52.10
2018-09-04T05:53:16.639Z,51.27
2018-09-04T05:55:45.663Z,51.50
2018-09-04T05:58:14.751Z,51.50
2018-09-04T06:00:47.403Z,52.97
2018-09-04T06:03:16.420Z,49.67
2018-09-04T06:08:25.433Z,52.00
2018-09-04T06:10:59.033Z,51.97
2018-09-04T06:13:28.647Z,51.57
2018-09-04T06:15:57.669Z,50.93
2018-09-04T06:18:26.661Z,52.83
2018-09-04T06:20:55.681Z,53.50
2018-09-04T06:23:24.659Z,52.30
2018-09-04T06:25:54.688Z,56.83
2018-09-04T06:28:26.830Z,54.30
2018-09-04T06:30:55.816Z,54.93
2018-09-04T06:33:25.500Z,54.03
2018-09-04T06:35:54.559Z,55.63
2018-09-04T06:38:23.500Z,53.97
2018-09-04T06:40:52.455Z,55.30
2018-09-04T06:43:21.443Z,58.07
2018-09-04T06:45:51.400Z,57.27
2018-09-04T06:48:20.400Z,55.67
2018-09-04T06:50:49.333Z,55.20
2018-09-04T06:53:18.252Z,51.00
2018-09-04T06:55:47.191Z,50.07
2018-09-04T06:58:16.110Z,50.63
2018-09-04T07:00:45.204Z,51.17
2018-09-04T07:03:14.124Z,50.40
2018-09-04T07:05:43.077Z,50.73
2018-09-04T07:08:16.280Z,50.63
2018-09-04T07:10:45.388Z,50.30
2018-09-04T07:13:14.352Z,50.67
2018-09-04T07:15:44.471Z,50.57
2018-09-04T07:27:15.494Z,47.23
2018-09-04T07:29:45.493Z,48.87
2018-09-04T07:32:14.516Z,48.77
2018-09-04T07:34:43.686Z,44.77
2018-09-04T07:37:12.676Z,46.60
2018-09-04T07:39:41.656Z,48.43
2018-09-04T07:42:10.640Z,48.23
2018-09-04T07:44:39.595Z,43.93
2018-09-04T07:47:08.549Z,46.13
2018-09-04T07:49:37.545Z,46.80
2018-09-04T07:52:06.836Z,41.90
2018-09-04T07:54:35.940Z,43.90
2018-09-04T07:57:04.860Z,43.80
2018-09-04T07:59:33.780Z,43.70
2018-09-04T08:02:02.784Z,43.27
2018-09-04T08:04:31.796Z,43.57
2018-09-04T08:07:00.746Z,43.07
2018-09-04T08:09:29.695Z,44.43
2018-09-04T08:11:58.616Z,44.93
2018-09-04T08:14:28.172Z,45.87
2018-09-04T08:16:57.080Z,46.37
2018-09-04T08:19:26.012Z,46.13
2018-09-04T08:21:55.028Z,43.57
2018-09-04T08:24:24.036Z,45.33
2018-09-04T08:26:53.100Z,45.53
2018-09-04T08:29:22.024Z,46.37
2018-09-04T08:31:50.920Z,45.07
2018-09-04T08:34:19.940Z,44.63
2018-09-04T08:36:48.900Z,46.03
2018-09-04T08:39:17.928Z,49.40
2018-09-04T08:41:46.862Z,46.87
2018-09-04T08:44:15.792Z,47.90
2018-09-04T08:46:44.714Z,48.23
2018-09-04T08:49:13.648Z,48.53
2018-09-04T08:51:42.582Z,48.60
2018-09-04T08:54:11.531Z,48.17
2018-09-04T08:56:40.521Z,45.97
2018-09-04T08:59:09.496Z,49.90
2018-09-04T09:01:38.438Z,49.40
2018-09-04T09:04:07.423Z,48.13
2018-09-04T09:06:36.480Z,49.43
2018-09-04T09:09:07.495Z,50.53
2018-09-04T09:11:36.586Z,49.43
2018-09-04T09:14:05.610Z,47.87
2018-09-04T09:16:35.244Z,50.13
2018-09-04T09:19:04.288Z,48.20
2018-09-04T09:21:33.256Z,48.23
2018-09-04T09:24:02.247Z,48.10
2018-09-04T09:26:31.440Z,48.40
2018-09-04T09:29:00.461Z,49.23
2018-09-04T09:31:29.425Z,46.30
2018-09-04T09:33:58.375Z,45.23
2018-09-04T09:36:27.369Z,47.87
2018-09-04T09:38:56.380Z,46.73
2018-09-04T09:41:25.308Z,47.77
2018-09-04T09:43:54.260Z,47.83
2018-09-04T09:46:23.240Z,46.67
2018-09-04T09:48:52.237Z,46.40
2018-09-04T09:51:21.177Z,46.17
2018-09-04T09:53:50.126Z,47.40
2018-09-04T09:56:19.131Z,47.77
2018-09-04T09:58:48.025Z,46.80
2018-09-04T10:01:19.827Z,46.27
2018-09-04T10:03:54.199Z,45.80
2018-09-04T10:06:23.155Z,45.37
2018-09-04T10:08:52.183Z,47.50
2018-09-04T10:11:21.141Z,45.80
2018-09-04T10:13:50.133Z,45.07
2018-09-04T10:16:19.247Z,43.87
2018-09-04T10:18:48.276Z,44.63
2018-09-04T10:21:17.596Z,44.47
2018-09-04T10:23:46.562Z,43.67
2018-09-04T10:26:15.499Z,42.13
2018-09-04T10:28:44.386Z,42.50
2018-09-04T10:31:13.271Z,43.07
2018-09-04T10:33:42.227Z,43.00
2018-09-04T10:36:11.165Z,44.03
2018-09-04T10:38:40.092Z,43.70
2018-09-04T10:41:11.980Z,43.30
2018-09-04T10:43:41.083Z,43.60
2018-09-04T10:46:11.517Z,44.67
2018-09-04T10:48:40.436Z,42.23
2018-09-04T10:51:09.397Z,41.90
2018-09-04T10:53:38.376Z,42.00
2018-09-04T10:56:07.445Z,43.90
2018-09-04T10:58:36.549Z,42.70
2018-09-04T11:01:11.142Z,43.77
2018-09-04T11:03:40.276Z,43.30
2018-09-04T11:06:09.241Z,42.63
2018-09-04T11:08:38.131Z,42.73
2018-09-04T11:11:07.088Z,41.37
2018-09-04T11:13:36.091Z,42.37
2018-09-04T11:16:05.157Z,41.60
2018-09-04T11:18:35.491Z,42.60
2018-09-04T11:21:04.439Z,42.83
2018-09-04T11:23:33.435Z,42.20
2018-09-04T11:26:02.336Z,44.10
2018-09-04T11:28:31.695Z,45.07
2018-09-04T11:31:00.693Z,40.40
2018-09-04T11:33:29.615Z,43.70
2018-09-04T11:35:58.523Z,43.53
2018-09-04T11:38:30.417Z,42.77
2018-09-04T11:40:59.431Z,44.57
2018-09-04T11:43:28.304Z,44.33
2018-09-04T11:45:57.257Z,44.63
2018-09-04T11:48:26.246Z,44.60
2018-09-04T11:50:55.137Z,44.57
2018-09-04T11:53:24.027Z,44.63
2018-09-04T11:55:52.975Z,43.53
2018-09-04T11:58:21.876Z,45.63
2018-09-04T12:00:50.805Z,44.70
2018-09-04T12:03:19.717Z,45.57
2018-09-04T12:05:48.714Z,43.83
2018-09-04T12:08:17.657Z,43.83
2018-09-04T12:10:46.679Z,44.23
2018-09-04T12:13:20.896Z,43.27
2018-09-04T12:15:49.849Z,45.40
2018-09-04T12:18:18.773Z,44.97
2018-09-04T12:20:57.634Z,41.10
2018-09-04T12:23:26.928Z,42.37
2018-09-04T12:25:57.065Z,41.03
2018-09-04T12:28:26.111Z,42.17
2018-09-04T12:30:55.231Z,43.17
2018-09-04T12:33:24.218Z,42.93
2018-09-04T12:35:53.184Z,45.47
2018-09-04T12:38:24.698Z,42.63
2018-09-04T12:40:53.721Z,44.13
2018-09-04T12:43:22.709Z,40.93
2018-09-04T12:45:52.916Z,42.27
2018-09-04T12:48:22.725Z,39.53
2018-09-04T12:50:52.449Z,40.97
2018-09-04T12:53:22.210Z,39.77
2018-09-04T12:55:51.211Z,41.90
2018-09-04T12:58:20.261Z,42.47
2018-09-04T13:00:51.242Z,39.43
2018-09-04T13:03:22.320Z,39.13
2018-09-04T13:05:51.278Z,41.57
2018-09-04T13:08:21.639Z,41.47
2018-09-04T13:10:56.019Z,38.37
2018-09-04T13:13:24.968Z,37.77
2018-09-04T13:15:57.452Z,37.47
2018-09-04T13:18:27.245Z,35.63
2018-09-04T13:21:01.325Z,36.87
2018-09-04T13:23:30.809Z,35.53
2018-09-04T13:25:59.791Z,37.57
2018-09-04T13:28:29.375Z,36.57
2018-09-04T13:30:58.448Z,36.47
2018-09-04T13:33:27.528Z,36.93
2018-09-04T13:35:56.475Z,35.73
2018-09-04T13:38:25.393Z,37.63
2018-09-04T13:41:09.364Z,35.97
2018-09-04T13:43:39.447Z,37.63
2018-09-04T13:46:08.387Z,39.70
2018-09-04T13:48:37.336Z,38.40
2018-09-04T13:51:06.326Z,37.87
2018-09-04T13:53:35.286Z,35.50
2018-09-04T13:56:04.200Z,36.70
2018-09-04T13:58:33.176Z,38.03
2018-09-04T14:01:02.104Z,36.27
2018-09-04T14:03:31.108Z,35.97
2018-09-04T14:06:00.056Z,34.93
2018-09-04T14:08:29.073Z,33.73
2018-09-04T14:10:58.083Z,32.93
2018-09-04T14:13:27.093Z,34.70
2018-09-04T14:15:57.824Z,36.67
2018-09-04T14:18:26.759Z,33.17
2018-09-04T14:20:55.709Z,35.43
2018-09-04T14:23:24.636Z,32.87
2018-09-04T14:25:53.587Z,33.17
2018-09-04T14:28:40.976Z,35.10
2018-09-04T14:30:51.768Z,33.87
2018-09-04T14:33:20.537Z,33.10
2018-09-04T14:35:49.437Z,32.87
2018-09-04T14:38:18.443Z,31.80
2018-09-04T14:40:47.460Z,33.90
2018-09-04T14:43:22.756Z,35.27
2018-09-04T14:45:51.730Z,36.20
2018-09-04T14:48:20.655Z,34.97
2018-09-04T14:50:49.583Z,33.40
2018-09-04T14:53:18.488Z,34.73
2018-09-04T14:55:47.424Z,35.53
2018-09-04T14:58:16.544Z,33.43
2018-09-04T15:00:45.508Z,35.87
2018-09-04T15:03:14.488Z,35.03
2018-09-04T15:05:43.731Z,36.07
2018-09-04T15:08:12.769Z,35.53
2018-09-04T15:10:41.742Z,33.73
2018-09-04T15:13:10.688Z,33.00
2018-09-04T15:15:39.699Z,33.53
2018-09-04T15:18:08.650Z,33.33
2018-09-04T15:20:37.592Z,33.77
2018-09-04T15:23:07.106Z,31.77
2018-09-04T15:25:36.101Z,31.70
2018-09-04T15:28:05.085Z,31.80
2018-09-04T15:30:34.039Z,32.43
2018-09-04T15:33:03.094Z,32.47
2018-09-04T15:35:32.104Z,30.10
2018-09-04T15:38:01.128Z,30.70
2018-09-04T15:40:30.093Z,29.17
2018-09-04T15:42:59.182Z,29.97
2018-09-04T15:45:28.061Z,29.73
2018-09-04T15:48:03.797Z,28.53
2018-09-04T15:50:32.710Z,27.53
2018-09-04T15:53:02.334Z,26.83
2018-09-04T15:55:36.812Z,27.70
2018-09-04T15:58:11.301Z,26.60
2018-09-04T16:00:40.198Z,26.53
2018-09-04T16:03:09.204Z,27.17
2018-09-04T16:05:38.195Z,26.27
2018-09-04T16:08:07.182Z,26.40
2018-09-04T16:10:36.137Z,26.60
2018-09-04T16:13:05.077Z,27.17
2018-09-04T16:15:34.009Z,26.73
2018-09-04T16:18:02.982Z,26.50
2018-09-04T16:20:37.435Z,25.00
2018-09-04T16:23:11.883Z,22.77
2018-09-04T16:25:41.905Z,24.60
2018-09-04T16:28:10.801Z,23.23
2018-09-04T16:30:39.780Z,22.63
2018-09-04T16:33:08.715Z,23.27
2018-09-04T16:35:37.732Z,22.93
2018-09-04T16:38:06.632Z,21.57
2018-09-04T16:40:35.569Z,21.90
2018-09-04T16:43:04.524Z,21.67
2018-09-04T16:45:33.450Z,20.37
2018-09-04T16:48:02.398Z,21.77
2018-09-04T16:50:31.360Z,23.30
2018-09-04T16:53:02.482Z,20.77
2018-09-04T16:55:31.402Z,22.10
2018-09-04T16:58:00.400Z,21.10
2018-09-04T17:00:29.486Z,21.17
2018-09-04T17:02:58.418Z,20.37
2018-09-04T17:05:27.346Z,22.20
2018-09-04T17:07:56.267Z,22.73
2018-09-04T17:10:25.182Z,25.00
2018-09-04T17:12:54.243Z,24.13
2018-09-04T17:15:23.123Z,22.13
2018-09-04T17:17:52.152Z,23.67
2018-09-04T17:20:21.520Z,23.63
2018-09-04T17:22:50.458Z,22.63
2018-09-04T17:25:19.459Z,21.40
2018-09-04T17:27:48.364Z,23.83
2018-09-04T17:30:17.323Z,22.13
2018-09-04T17:32:46.269Z,21.57
2018-09-04T17:35:15.322Z,21.17
2018-09-04T17:37:44.336Z,21.83
2018-09-04T17:40:13.484Z,21.57
2018-09-04T17:42:42.492Z,24.70
2018-09-04T17:45:11.391Z,25.23
2018-09-04T17:47:40.482Z,29.20
2018-09-04T17:50:09.384Z,26.77
2018-09-04T17:52:38.345Z,32.33
2018-09-04T17:55:07.262Z,32.57
2018-09-04T17:57:36.445Z,32.63
2018-09-04T18:00:05.709Z,43.33
2018-09-04T18:02:34.692Z,41.67
2018-09-04T18:05:03.636Z,42.63
2018-09-04T18:07:32.698Z,42.47
2018-09-04T18:10:01.721Z,45.20
2018-09-04T18:12:30.724Z,47.33
2018-09-04T18:14:59.712Z,46.60
2018-09-04T18:17:28.652Z,44.53
2018-09-04T18:19:57.613Z,48.20
2018-09-04T18:22:26.607Z,43.10
2018-09-04T18:24:55.544Z,43.60
2018-09-04T18:27:24.490Z,43.37
2018-09-04T18:29:53.409Z,44.07
2018-09-04T18:32:22.365Z,42.60
2018-09-04T18:34:51.318Z,41.00
2018-09-04T18:37:20.248Z,39.23
2018-09-04T18:39:49.213Z,39.60
2018-09-04T18:42:18.141Z,39.40
2018-09-04T18:44:47.113Z,37.93
2018-09-04T18:47:16.034Z,39.73
2018-09-04T18:49:45.009Z,41.33
2018-09-04T18:52:14.020Z,40.10
2018-09-04T18:54:43.049Z,40.63
2018-09-04T18:57:12.007Z,40.53
2018-09-04T18:59:40.988Z,40.93
2018-09-04T19:02:09.968Z,41.53
2018-09-04T19:04:39.039Z,41.27
2018-09-04T19:07:07.938Z,40.87
2018-09-04T19:09:36.903Z,41.97
2018-09-04T19:12:05.882Z,39.27
2018-09-04T19:14:34.908Z,39.07
2018-09-04T19:17:03.962Z,40.67
2018-09-04T19:19:32.955Z,38.33
2018-09-04T19:22:01.969Z,36.03
2018-09-04T19:24:32.026Z,34.57
2018-09-04T19:27:00.997Z,33.33
2018-09-04T19:29:30.180Z,31.63
2018-09-04T19:32:03.634Z,31.07
2018-09-04T19:34:32.714Z,30.57
2018-09-04T19:37:01.650Z,32.80
2018-09-04T19:39:30.574Z,28.87
2018-09-04T19:41:59.496Z,29.93
2018-09-04T19:44:28.393Z,28.37
2018-09-04T19:46:57.328Z,27.77
2018-09-04T19:49:26.368Z,26.90
2018-09-04T19:51:55.316Z,26.97
2018-09-04T19:54:24.270Z,26.13
2018-09-04T19:56:53.212Z,27.60
2018-09-04T19:59:22.164Z,26.93
2018-09-04T20:01:51.131Z,28.03
2018-09-04T20:04:20.301Z,28.73
2018-09-04T20:06:49.352Z,28.23
2018-09-04T20:09:18.548Z,28.30
2018-09-04T20:11:47.500Z,28.73
2018-09-04T20:14:16.472Z,29.13
2018-09-04T20:16:45.458Z,30.33
2018-09-04T20:19:14.368Z,28.37
2018-09-04T20:21:43.315Z,29.73
2018-09-04T20:24:12.820Z,29.67
2018-09-04T20:26:41.833Z,30.00
2018-09-04T20:29:10.820Z,31.67
2018-09-04T20:31:39.816Z,30.27
2018-09-04T20:34:08.852Z,32.03
2018-09-04T20:36:37.829Z,33.83
2018-09-04T20:39:06.884Z,31.03
2018-09-04T20:41:35.880Z,32.97
2018-09-04T20:44:05.033Z,32.53
2018-09-04T20:46:34.624Z,34.83
2018-09-04T20:49:04.290Z,33.87
2018-09-04T20:51:33.464Z,35.23
2018-09-04T20:54:02.432Z,36.33
2018-09-04T20:56:31.391Z,34.57
2018-09-04T20:59:11.709Z,35.13
2018-09-04T21:01:51.888Z,35.00
2018-09-04T21:04:32.215Z,35.27
2018-09-04T21:07:00.041Z,34.27
2018-09-04T21:09:35.648Z,33.43
2018-09-04T21:12:04.586Z,35.87
2018-09-04T21:14:33.716Z,34.47
2018-09-04T21:17:02.993Z,36.10
2018-09-04T21:19:32.476Z,34.97
2018-09-04T21:22:01.437Z,33.70
2018-09-04T21:24:30.408Z,33.47
2018-09-04T21:26:59.352Z,33.50
2018-09-04T21:29:28.333Z,34.37
2018-09-04T21:31:57.266Z,34.70
2018-09-04T21:34:26.309Z,34.50
2018-09-04T21:36:55.302Z,34.20
2018-09-04T21:39:24.225Z,34.47
2018-09-04T21:41:53.176Z,33.67
2018-09-04T21:44:22.261Z,34.60
2018-09-04T21:46:51.202Z,34.57
2018-09-04T21:49:20.170Z,33.87
2018-09-04T21:51:49.449Z,34.23
2018-09-04T21:54:18.374Z,34.17
2018-09-04T21:56:47.277Z,32.53
2018-09-04T21:59:16.274Z,31.83
2018-09-04T22:01:45.221Z,35.33
2018-09-04T22:04:14.089Z,34.00
2018-09-04T22:06:43.132Z,34.03
2018-09-04T22:09:12.164Z,35.07
2018-09-04T22:11:41.135Z,33.83
2018-09-04T22:14:10.111Z,33.33
2018-09-04T22:16:38.998Z,32.83
2018-09-04T22:19:07.996Z,33.43
2018-09-04T22:21:36.962Z,33.00
2018-09-04T22:24:06.206Z,33.97
2018-09-04T22:26:35.297Z,32.93
2018-09-04T22:29:04.271Z,33.87
2018-09-04T22:31:33.203Z,33.27
2018-09-04T22:37:03.491Z,32.10
2018-09-04T22:39:32.439Z,33.23
2018-09-04T22:42:01.401Z,32.87
2018-09-04T22:44:30.395Z,34.67
2018-09-04T22:46:59.319Z,33.73
2018-09-04T22:49:28.321Z,34.83
2018-09-04T22:52:00.551Z,34.00
2018-09-04T22:54:29.670Z,34.30
2018-09-04T22:56:58.689Z,33.90
2018-09-04T22:59:28.003Z,34.53
2018-09-04T23:01:56.993Z,36.33
2018-09-04T23:04:26.004Z,34.73
2018-09-04T23:06:54.952Z,34.27
2018-09-04T23:09:23.878Z,36.93
2018-09-04T23:11:52.781Z,34.87
2018-09-04T23:14:21.899Z,33.53
2018-09-04T23:16:50.837Z,34.40
2018-09-04T23:19:19.767Z,33.87
2018-09-04T23:21:48.735Z,35.33
2018-09-04T23:24:17.646Z,34.23
2018-09-04T23:26:47.038Z,33.93
2018-09-04T23:29:16.000Z,32.90
2018-09-04T23:31:44.937Z,33.90
2018-09-04T23:34:13.841Z,36.37
2018-09-04T23:36:42.805Z,35.83
2018-09-04T23:39:11.710Z,35.90
2018-09-04T23:41:40.700Z,34.03
2018-09-04T23:44:09.689Z,35.73
2018-09-04T23:46:38.873Z,35.13
2018-09-04T23:49:08.221Z,36.13
2018-09-04T23:51:37.199Z,35.53
2018-09-04T23:54:06.241Z,34.73
2018-09-04T23:56:35.219Z,35.10
2018-09-04T23:59:04.202Z,36.33
